Limbourg, Belgium
Current Conditions -  °F | °C
As of 11:25 AM on Friday 28 Nov 2014 (Local Time) from EBLB Reporting Station
Broken Clouds Broken Clouds  
Wind Chill: 54°   Ceiling: 8500
Heat Index: 54°   Visibility: 6mi
Dew Point: 43°   Wind: 9mph
Humidity: 67%   Direction: 110°ESE
Pressure: 29.74"   Gusts: NA
Location:  50.61°N, 5.94°E
Report Text: EBLB 281025Z AUTO 11008KT 9999 FEW070/// BKN085/// BKN110/// 12/06 Q1007 BLU
Loading
Personal Weather Stations






























Interactive Weather Map New forecast layout! Learn more

10-Day Weather Forecast

Advertisements
Track Severe Weather on mobile